Flight Track Log - Related Links

Times and Time Zones

All times are in EDT time to prevent confusion due to time zone crossing. See the EJA292 flight status page for this flight to view local times or setup timezone preferences in your user account.


Time Position Orientation Groundspeed Altitude Reporting Facility
EDT Latitude Longitude Course Direction KTS MPH feet Rate Location/Type
Mon 10:57:00 AM 43.1203 -77.6992 266° West 136 157 1,800  Level Cleveland Center
Mon 10:57:30 AM 43.1189 -77.7275 266° West 181 208 3,200 3,956 Climbing Cleveland Center
Mon 10:58:31 AM 43.0550 -77.7561 198° South 244 281 7,800 3,168 Climbing Cleveland Center
Mon 10:59:35 AM 42.9861 -77.7536 178° South 290 334 9,800 2,565 Climbing Cleveland Center
Mon 11:00:35 AM 42.8983 -77.7433 175° South 306 352 13,100 2,950 Climbing Cleveland Center
Mon 11:01:35 AM 42.8108 -77.7417 179° South 319 367 15,700 1,450 Climbing Cleveland Center
Mon 11:02:35 AM 42.7114 -77.7658 190° South 338 389 16,000 100 Climbing Cleveland Center
Mon 11:03:35 AM 42.5892 -77.7994 191° South 373 429 15,900 50 Descending Cleveland Center
Mon 11:04:35 AM 42.4711 -77.8272 190° South 415 478 16,100 100 Climbing Cleveland Center
Mon 11:05:35 AM 42.3531 -77.8578 191° South 429 494 16,100  Level Cleveland Center
Mon 11:06:35 AM 42.2350 -77.8908 192° South 434 499 16,100  Level Cleveland Center
Mon 11:07:35 AM 42.1136 -77.8681 172° South 426 490 16,100 -50 Level Cleveland Center
Mon 11:08:35 AM 41.9914 -77.8172 163° South 438 504 16,000  Descending Cleveland Center
Mon 11:09:35 AM 41.8711 -77.7611 161° South 454 522 16,100  Climbing Cleveland Center
Mon 11:09:50 AM 41.8411 -77.7508 166° South 454 522 16,000 -79 Descending New York Center
Mon 11:10:51 AM 41.7214 -77.6967 161° South 469 540 16,000  Level New York Center
Mon 11:11:49 AM 41.6039 -77.6428 161° South 469 540 16,000  Level New York Center
Mon 11:12:49 AM 41.4819 -77.5889 162° South 464 534 16,000 50 Level New York Center
Mon 11:13:50 AM 41.3619 -77.5353 161° South 464 534 16,100  Climbing New York Center
Mon 11:14:51 AM 41.2422 -77.4817 161° South 464 534 16,000 -50 Descending New York Center
Mon 11:15:50 AM 41.1242 -77.4289 161° South 459 528 16,000  Level New York Center
Mon 11:16:50 AM 41.0022 -77.3756 162° South 459 528 16,000  Level New York Center
Mon 11:17:51 AM 40.8819 -77.3256 163° South 459 528 16,000  Level New York Center
Mon 11:18:49 AM 40.7619 -77.2728 162° South 454 522 16,000 51 Level New York Center
Mon 11:19:49 AM 40.6419 -77.2206 162° South 454 522 16,100  Climbing New York Center
Mon 11:20:51 AM 40.5339 -77.1719 161° South 454 522 16,000 -49 Descending New York Center
Mon 11:21:51 AM 40.4061 -77.1083 159° South 447 514 16,000 50 Level New York Center
Mon 11:22:51 AM 40.3444 -76.9747 121° Southeast 437 503 16,100  Climbing New York Center
Mon 11:23:51 AM 40.2869 -76.7981 113° Southeast 460 529 16,000 -51 Descending New York Center
Mon 11:24:48 AM 40.2397 -76.6581 114° Southeast 477 549 16,000  Level New York Center
Mon 11:25:50 AM 40.1797 -76.4789 114° Southeast 477 549 16,000 -780 Level New York Center
Mon 11:26:51 AM 40.1267 -76.3225 114° Southeast 477 549 14,400 -1,765 Descending New York Center
Mon 11:27:49 AM 40.1111 -76.1611 97° East 464 534 12,500 -1,765 Descending New York Center
Mon 11:28:50 AM 40.1019 -76.0411 96° East 401 461 10,900 -1,488 Descending New York Center
Mon 11:29:50 AM 40.0928 -75.9208 96° East 346 398 9,500 -1,636 Descending New York Center
Mon 11:30:51 AM 40.0831 -75.8064 96° East 302 348 7,600 -1,736 Descending New York Center
Mon 11:31:51 AM 40.0642 -75.7128 105° East 268 308 6,000 -814 Descending New York Center
Mon 11:32:49 AM 40.0178 -75.6767 149° Southeast 215 247 6,000 -610 Level New York Center
Mon 11:33:49 AM 39.9583 -75.6483 160° South 210 242 4,800 -1,328 Descending New York Center
Mon 11:34:51 AM 39.9089 -75.6367 170° South 204 235 3,300 -1,178 Descending New York Center
Mon 11:35:36 AM 39.8667 -75.6167 160° South 204 235 2,700 -703 Descending Philadelphia TRACON
Mon 11:36:42 AM 39.8000 -75.6000 169° South 215 247 2,000 -400 Descending Philadelphia TRACON
Mon 11:37:36 AM 39.7500 -75.5667 153° Southeast 177 204 1,900 -600 Descending Philadelphia TRACON
Mon 11:38:42 AM 39.7167 -75.6000 218° Southwest 139 160 800 -1,000 Descending Philadelphia TRACON

Login

Don't have an account? Register now (free) for customized features, flight alerts, and more!